createdAt,value
2018-08-17T00:02:23.473Z,54.20
2018-08-17T00:04:50.504Z,55.50
2018-08-17T00:07:17.465Z,55.70
2018-08-17T00:09:44.381Z,55.30
2018-08-17T00:12:11.681Z,55.60
2018-08-17T00:14:38.638Z,55.70
2018-08-17T00:17:05.589Z,55.80
2018-08-17T00:19:32.572Z,56.10
2018-08-17T00:51:26.589Z,56.50
2018-08-17T00:53:53.530Z,60.30
2018-08-17T01:01:14.672Z,59.90
2018-08-17T01:03:41.684Z,61.50
2018-08-17T01:06:08.727Z,61.70
2018-08-17T01:08:35.698Z,61.90
2018-08-17T01:11:02.718Z,61.90
2018-08-17T01:13:29.706Z,61.90
2018-08-17T01:15:56.737Z,62.40
2018-08-17T01:18:24.128Z,62.40
2018-08-17T01:20:51.147Z,62.60
2018-08-17T01:23:18.097Z,62.60
2018-08-17T01:25:45.111Z,62.90
2018-08-17T01:28:12.116Z,63.10
2018-08-17T01:30:39.130Z,63.20
2018-08-17T01:33:06.221Z,63.40
2018-08-17T01:35:33.291Z,63.60
2018-08-17T01:38:00.316Z,63.90
2018-08-17T01:40:27.556Z,64.00
2018-08-17T01:42:54.528Z,64.10
2018-08-17T01:45:21.590Z,64.20
2018-08-17T01:47:48.877Z,64.30
2018-08-17T01:50:15.861Z,64.70
2018-08-17T01:52:42.943Z,64.70
2018-08-17T01:55:10.923Z,65.10
2018-08-17T01:57:37.984Z,65.10
2018-08-17T02:00:06.647Z,65.40
2018-08-17T02:02:34.008Z,65.60
2018-08-17T02:05:01.025Z,65.70
2018-08-17T02:07:28.013Z,65.70
2018-08-17T02:09:55.022Z,66.30
2018-08-17T02:12:22.772Z,66.40
2018-08-17T02:14:49.882Z,66.70
2018-08-17T02:17:17.202Z,66.90
2018-08-17T02:19:44.239Z,67.00
2018-08-17T02:22:11.295Z,67.10
2018-08-17T02:24:38.277Z,67.20
2018-08-17T02:27:05.489Z,67.50
2018-08-17T02:29:32.729Z,67.80
2018-08-17T02:31:59.977Z,67.80
2018-08-17T02:34:27.053Z,67.80
2018-08-17T02:36:54.351Z,68.30
2018-08-17T02:39:21.366Z,68.40
2018-08-17T02:41:48.379Z,68.60
2018-08-17T02:44:15.361Z,68.70
2018-08-17T02:46:42.375Z,68.80
2018-08-17T02:49:09.403Z,68.80
2018-08-17T02:51:36.388Z,68.70
2018-08-17T02:54:03.332Z,69.20
2018-08-17T02:56:30.370Z,68.90
2018-08-17T02:58:57.465Z,69.10
2018-08-17T03:01:24.558Z,69.50
2018-08-17T03:03:51.529Z,69.70
2018-08-17T03:06:18.497Z,70.10
2018-08-17T03:08:45.458Z,70.30
2018-08-17T03:11:12.493Z,70.60
2018-08-17T03:13:39.499Z,70.90
2018-08-17T03:16:06.569Z,71.30
2018-08-17T03:18:33.607Z,71.60
2018-08-17T03:21:00.686Z,72.00
2018-08-17T03:23:27.732Z,72.30
2018-08-17T03:25:54.690Z,73.40
2018-08-17T03:28:21.748Z,72.80
2018-08-17T03:30:49.070Z,72.90
2018-08-17T03:33:16.054Z,73.10
2018-08-17T03:35:43.008Z,73.50
2018-08-17T03:38:10.031Z,73.70
2018-08-17T03:40:36.982Z,73.90
2018-08-17T03:43:03.977Z,74.00
2018-08-17T03:45:31.010Z,74.30
2018-08-17T03:47:58.040Z,74.30
2018-08-17T03:50:25.065Z,74.40
2018-08-17T03:52:52.044Z,74.60
2018-08-17T03:55:19.033Z,74.70
2018-08-17T03:57:46.021Z,75.10
2018-08-17T04:00:13.041Z,75.00
2018-08-17T04:02:40.432Z,75.20
2018-08-17T04:05:07.468Z,75.30
2018-08-17T04:07:34.511Z,75.60
2018-08-17T04:10:01.505Z,75.70
2018-08-17T04:12:28.522Z,75.70
2018-08-17T04:14:55.945Z,75.70
2018-08-17T04:17:23.012Z,75.70
2018-08-17T04:19:50.179Z,75.70
2018-08-17T04:22:17.238Z,76.10
2018-08-17T04:24:44.319Z,75.30
2018-08-17T04:27:11.291Z,75.20
2018-08-17T04:29:38.318Z,75.00
2018-08-17T04:32:05.526Z,75.00
2018-08-17T04:34:32.490Z,74.60
2018-08-17T04:36:59.502Z,74.50
2018-08-17T04:39:26.465Z,74.30
2018-08-17T04:41:53.412Z,73.80
2018-08-17T04:44:20.386Z,73.60
2018-08-17T04:46:47.407Z,73.70
2018-08-17T04:49:14.768Z,72.80
2018-08-17T04:51:41.754Z,72.50
2018-08-17T04:54:08.725Z,72.40
2018-08-17T04:56:35.796Z,72.10
2018-08-17T04:59:02.765Z,72.20
2018-08-17T05:01:29.802Z,71.40
2018-08-17T05:03:56.791Z,70.50
2018-08-17T05:06:23.735Z,70.60
2018-08-17T05:08:50.738Z,70.30
2018-08-17T05:11:17.706Z,69.40
2018-08-17T05:13:44.634Z,69.20
2018-08-17T05:16:11.642Z,68.50
2018-08-17T05:18:39.106Z,68.10
2018-08-17T05:21:06.046Z,67.50
2018-08-17T05:23:33.021Z,66.50
2018-08-17T05:26:00.014Z,65.40
2018-08-17T05:28:27.029Z,64.30
2018-08-17T05:30:54.034Z,64.00
2018-08-17T05:33:21.006Z,64.30
2018-08-17T05:35:47.973Z,63.70
2018-08-17T05:38:14.907Z,63.00
2018-08-17T05:40:42.180Z,62.80
2018-08-17T05:43:09.150Z,61.90
2018-08-17T05:45:36.090Z,61.60
2018-08-17T05:48:03.076Z,60.40
2018-08-17T05:50:32.492Z,60.20
2018-08-17T05:52:59.685Z,58.40
2018-08-17T05:55:27.117Z,59.70
2018-08-17T05:57:54.134Z,59.00
2018-08-17T06:00:21.099Z,58.70
2018-08-17T06:02:48.214Z,58.40
2018-08-17T06:05:15.204Z,57.50
2018-08-17T06:07:42.150Z,56.90
2018-08-17T06:10:09.353Z,57.40
2018-08-17T06:12:36.341Z,55.40
2018-08-17T06:17:31.200Z,55.40
2018-08-17T06:19:58.147Z,53.10
2018-08-17T20:31:09.505Z,55.20
2018-08-17T20:33:36.623Z,59.10
2018-08-17T20:36:03.722Z,59.10
2018-08-17T20:38:31.366Z,59.00
2018-08-17T20:40:59.189Z,59.70
2018-08-17T20:43:26.685Z,58.70
2018-08-17T20:45:53.897Z,58.50
2018-08-17T20:48:21.216Z,58.40
2018-08-17T21:15:24.820Z,58.00
2018-08-17T21:17:52.215Z,57.70
2018-08-17T21:20:19.633Z,57.80
2018-08-17T21:22:47.072Z,57.80
2018-08-17T21:25:14.370Z,58.00
2018-08-17T21:27:41.578Z,58.20
2018-08-17T21:30:09.595Z,59.10
2018-08-17T21:32:37.082Z,58.70
2018-08-17T21:35:04.839Z,58.90
2018-08-17T21:37:32.006Z,58.90
2018-08-17T21:39:59.559Z,59.20
2018-08-17T21:42:26.708Z,59.40
2018-08-17T21:44:54.877Z,59.80
2018-08-17T21:47:22.047Z,59.90
2018-08-17T21:49:49.327Z,60.10
2018-08-17T22:46:41.079Z,60.90
2018-08-17T23:11:27.310Z,71.20
2018-08-17T23:13:54.373Z,73.80
2018-08-17T23:16:21.353Z,73.80
2018-08-17T23:18:48.389Z,74.20
2018-08-17T23:21:15.352Z,74.60
2018-08-17T23:23:42.343Z,74.50
2018-08-17T23:26:09.309Z,74.80
2018-08-17T23:28:36.295Z,75.20
2018-08-17T23:31:03.302Z,75.50
2018-08-17T23:33:30.590Z,76.00
